Slide Mountain Weather observations

Data are for 10 minute period ending at time listed.
 Day   Time   Solar   Ave.   Ave.  Ave.  Vector  Max.    Baro.  
  of    of     Rad.   Air    Rel.  Wind   Wind   Wind   Press.  
Year   Day            Temp.  Hum.  Speed  Dir.   Gust           
2026   (PST)  Kw/m2    F      %     mph   deg.    mph     mb.   
-----------------------------------------------------------------
 123    1:40   0.00   38.6    65   21.5    59     24.6    711.8 
 123    1:50   0.00   38.3    66   25.0    54     30.0    711.6 
 123    2:00   0.00   38.6    62   27.1    54     32.1    711.6 
 123    2:10   0.00   38.7    61   22.5    55     30.5    711.7 
 123    2:20   0.00   38.7    61   16.2    45     20.0    711.8 
 123    2:30   0.00   38.7    61   12.4    16     15.6    711.8 
 123    2:40   0.00   38.5    61   15.0    30     21.7    711.7 
 123    2:50   0.00   38.3    61   21.3    27     26.4    711.5 
 123    3:00   0.00   38.3    61   24.4    24     31.0    711.4 
 123    3:10   0.00   38.3    60   25.4    22     34.3    711.3 
 123    3:20   0.00   38.0    61   23.9    28     28.3    711.3 
 123    3:30   0.00   38.0    61   24.3    28     31.6    711.3 
 123    3:40   0.00   37.7    62   23.5    32     31.0    711.2 
 123    3:50   0.00   37.5    63   23.3    44     28.1    711.2 
 123    4:00   0.00   37.6    63   21.3    50     25.3    711.1 
 123    4:10   0.00   37.8    62   21.0    56     25.3    711.1 
 123    4:20   0.00   37.8    62   18.1    56     22.0    711.2 
 123    4:30   0.00   37.8    63   13.2    64     17.1    711.3 
 123    4:40   0.00   37.8    62   17.4    48     23.4    711.1 
 123    4:50   0.00   38.3    58   23.1    54     29.9    711.0 
 123    5:00   0.00   38.2    58   24.5    58     36.1    711.0 
 123    5:10   0.00   38.3    58   29.2    59     39.0    710.9 
 123    5:20   0.01   38.1    59   26.4    57     33.0    711.0 
 123    5:30   0.01   38.0    59   27.8    52     35.2    711.0 
 123    5:40   0.03   37.9    59   27.3    57     35.7    711.0 
 123    5:50   0.04   38.0    59   27.8    54     38.6    710.9 
 123    6:00   0.04   38.1    58   26.2    49     40.0    711.0 
 123    6:10   0.06   38.0    60   23.5    49     32.3    711.1 
 123    6:20   0.09   38.1    59   24.1    50     38.0    711.1 
 123    6:30   0.10   38.1    59   25.4    45     39.1    711.1 
 123    6:40   0.12   38.1    59   26.2    45     36.9    711.1 
 123    6:50   0.15   38.2    59   22.3    47     32.8    711.1 
 123    7:00   0.14   38.2    60   19.7    43     26.8    711.1 
 123    7:10   0.14   38.1    60   20.1    45     26.4    711.1 
 123    7:20   0.16   38.1    59   24.0    38     31.6    711.1 
 123    7:30   0.19   38.3    59   19.1    42     31.2    711.1 
 123    7:40   0.25   38.6    58   18.4    42     32.3    711.1 
 123    7:50   0.28   38.8    57   21.0    46     32.2    711.1 
 123    8:00   0.30   38.9    56   22.9    46     39.2    711.0 
 123    8:10   0.31   39.3    56   18.0    43     26.1    711.1 
 123    8:20   0.47   39.6    56   16.5    44     24.0    711.1 
 123    8:30   0.42   39.5    57   18.2    45     25.0    711.0 
 123    8:40   0.34   39.7    57   16.8    40     25.4    711.0 
 123    8:50   0.36   39.0    58   17.6    37     24.2    711.0 
 123    9:00   0.50   39.9    57   16.1    48     24.0    711.0 
 123    9:10   0.47   40.1    56   18.0    46     27.2    710.9 
 123    9:20   0.50   40.2    57   17.3    49     24.5    711.0 
 123    9:30   0.52   40.0    58   17.5    48     25.3    710.9 
 123    9:40   0.61   41.1    56   15.4    63     24.6    711.0 
 123    9:50   0.74   42.7    54   17.3    64     26.0    711.0 
 123   10:00   0.79   42.7    53   20.1    83     39.2    710.8 
 123   10:10   0.70   42.6    55   19.9    61     31.4    710.8 
 123   10:20   0.66   43.0    54   19.6    79     31.9    710.8 
 123   10:30   0.61   42.5    57   18.7    82     26.4    710.8 
 123   10:40   0.58   42.7    58   14.9    70     26.0    710.8 
 123   10:50   0.62   42.2    54   14.2    67     29.1    710.7 
 123   11:00   0.69   43.0    54   14.3    68     20.9    710.7 
 123   11:10   0.66   43.6    54   16.4    74     28.7    710.6 
 123   11:20   0.56   42.7    54   16.4    74     25.4    710.5 
 123   11:30   0.73   43.1    53   12.9    49     22.9    710.4 
 123   11:40   0.73   43.6    54   17.0    42     26.8    710.3 
 123   11:50   0.58   43.4    53   18.4    51     28.9    710.2 
 123   12:00   0.49   43.8    52   19.7    68     30.4    710.2 
 123   12:10   0.63   43.9    52   16.6    56     23.9    710.1 
 123   12:20   0.66   43.6    53   17.6    49     25.3    710.0 
 123   12:30   0.55   44.1    51   19.3    55     29.4    709.9 
 123   12:40   0.58   43.7    47   21.9    51     35.5    709.8 
 123   12:50   0.45   44.7    46   18.7    52     34.2    709.8 
 123   13:00   0.23   43.8    46   20.8    60     27.8    709.8 
 123   13:10   0.23   44.2    46   12.0    78     24.4    710.1 
 123   13:20   0.08   37.0    79   34.1   237     61.5    709.4 
 123   13:30   0.05   33.4    92   37.6   241     51.5    709.1 
 123   13:40   0.01   32.1   100   37.3   237     69.2    708.7 
 123   13:50   0.01   31.2   100   33.0   224     52.1    708.8 
 123   14:00   0.02   30.7   100   33.0   216     45.7    709.5 
 123   14:10   0.04   30.7   100   30.5   214     37.7    709.5 
 123   14:20   0.18   30.7   100   32.1   213     42.1    709.5 
 123   14:30   0.25   30.9   100   35.5   221     44.2    709.0 
 123   14:40   0.20   30.8   100   26.6   215     39.4    709.5 
 123   14:50   0.15   30.7   100   19.0   223     29.7    709.9 
 123   15:00   0.14   30.5   100   17.5   222     28.3    710.0 
 123   15:10   0.06   30.4   100   10.6   221     18.5    710.2 
 123   15:20   0.22   30.9   100    8.6   205     13.3    710.2 
 123   15:30   0.29   31.2   100   10.1   216     14.8    709.9 
 123   15:40   0.29   31.0   100   13.6   233     19.2    709.8 
 123   15:50   0.14   30.5   100   15.5   252     19.1    709.7 
 123   16:00   0.12   30.7   100   16.7   240     20.5    709.6 
 123   16:10   0.13   31.0   100   19.8   240     29.4    709.5 
 123   16:20   0.22   31.3   100   20.6   238     29.4    709.3 
 123   16:30   0.25   31.6   100   15.6   217     19.6    709.3 
 123   16:40   0.23   31.5   100   13.3   215     16.0    709.3 
 123   16:50   0.14   31.1   100   10.3   213     15.8    709.3 
 123   17:00   0.09   31.1   100    4.2   211      5.8    709.5 
 123   17:10   0.06   30.8   100    0.6   135      3.2    709.5 
 123   17:20   0.07   31.1   100    4.9    55     10.8    709.6 
 123   17:30   0.08   31.9   100    0.1    42      2.5    709.7 
 123   17:40   0.04   31.8   100    4.5    77      9.9    709.8 
 123   17:50   0.01   31.4   100    6.5    62     11.2    709.8 
 123   18:00   0.01   31.2   100    9.1    57     12.8    709.9 
 123   18:10   0.01   30.9   100    2.0   312     10.1    709.9 
 123   18:20   0.01   30.6   100   11.1   284     14.8    709.5 
 123   18:30   0.01   31.1   100   11.9   296     14.1    709.4 
 123   18:40   0.01   30.8   100    9.6   278     11.9    709.3 
 123   18:50   0.00   30.6   100    9.2   252     14.8    709.3 
 123   19:00   0.00   30.7   100   10.8   259     15.2    709.3 
 123   19:10   0.00   30.9   100    7.6   259     10.8    709.3 
 123   19:20   0.00   31.1   100    3.9   207      6.8    709.4 
 123   19:30   0.00   31.5   100    0.2   184      2.2    709.4 
 123   19:40   0.00   31.6   100    1.3   156      3.7    709.5 
 123   19:50   0.00   31.7   100    0.0   155      0.1    709.5 
 123   20:00   0.00   31.7   100    1.0   155      3.0    709.6 
 123   20:10   0.00   31.8   100    2.0   155      4.3    709.7 
 123   20:20   0.00   31.9   100    3.2    97      9.7    709.7 
 123   20:30   0.00   31.8   100    8.4    70     10.2    709.8 
 123   20:40   0.00   31.8   100    5.3    65      6.9    709.8 
 123   20:50   0.00   31.9    98    6.5    65      8.0    709.9 
 123   21:00   0.00   32.0    97    5.3    65      6.2    709.8 
 123   21:10   0.00   32.2    96    3.2    65      5.3    709.7 
 123   21:20   0.00   32.1    98   -0.0   245      0.0    709.7 
 123   21:30   0.00   32.1    97    0.0     0      0.0    709.7 
 123   21:40   0.00   32.3    98    0.0     0      0.0    709.6 
 123   21:50   0.00   32.2   100    0.0     0      0.0    709.6 
 123   22:00   0.00   31.8   100    0.0     0      0.0    709.5 
 123   22:10   0.00   31.9    99   -0.0   245      0.0    709.5 
 123   22:20   0.00   32.1    97    0.9    76      2.8    709.5 
 123   22:30   0.00   32.2    94    1.2   235      2.6    709.4 
 123   22:40   0.00   32.2    97    0.0     0      0.0    709.5 
 123   22:50   0.00   32.1    99    0.0     0      0.0    709.5 
 123   23:00   0.00   32.4    96    1.0   243      4.7    709.4 
 123   23:10   0.00   32.2    92    1.2   262      3.7    709.4 
 123   23:20   0.00   32.4    89    1.4   290      3.0    709.3 
 123   23:30   0.00   32.6    88    1.3   290      2.9    709.4 
 123   23:40   0.00   32.7    88    0.7   290      1.9    709.4 
 123   23:50   0.00   33.1    86    5.1   331      8.6    709.3 
 124    0:00   0.00   33.2    88    3.6   333      9.3    709.2 
 124    0:10   0.00   33.2    88    1.7    57      5.8    709.2 
 124    0:20   0.00   32.8    89    3.2   257      9.9    709.1 
 124    0:30   0.00   32.4    86    4.9   271      6.9    709.0 
 124    0:40   0.00   32.0    87    5.3   270      8.2    709.0 
 124    0:50   0.00   31.5    87    8.2   267     10.2    708.8 
 124    1:00   0.00   31.3    88    7.0   265      8.6    708.8 
 124    1:10   0.00   32.1    85    5.8   267      7.3    708.8 
 124    1:20   0.00   32.7    83    4.7   284      8.4    708.8 
 124    1:30   0.00   32.8    82    6.7   309      8.3    708.6 

Return to Slide Mountain graphs page.


Western Regional Climate Center,wrcc@dri.edu